Time;durP1;ratioP1;P1;durP2;ratioP2;P2;SDS_P1;SDS_P2;PMS_P1;PMS_P2;Temp;Humidity;BMP_temperature;BMP_pressure;BME280_temperature;BME280_humidity;BME280_pressure;Samples;Min_cycle;Max_cycle;Signal;HPM_P1;HPM_P2
2022/10/12 00:05:19;;;;;;;8.57;6.93;;;;;;;23.04;55.84;101064.84;20641325;28;20095;-73
2022/10/12 00:15:20;;;;;;;8.90;7.35;;;;;;;23.02;56.15;101064.97;20641076;28;20076;-73
2022/10/12 00:25:20;;;;;;;7.80;6.93;;;;;;;23.02;55.86;101074.69;20635056;28;20054;-74
2022/10/12 00:35:21;;;;;;;8.45;7.20;;;;;;;22.99;56.09;101077.56;20644547;28;20095;-73
2022/10/12 00:45:23;;;;;;;9.25;7.10;;;;;;;22.98;55.86;101074.06;20652695;28;20126;-73
2022/10/12 00:55:27;;;;;;;9.13;6.97;;;;;;;22.99;56.04;101077.56;20641214;28;20079;-72
2022/10/12 01:05:28;;;;;;;7.82;6.85;;;;;;;22.96;56.27;101076.00;20638547;28;20045;-72
2022/10/12 01:15:35;;;;;;;8.73;7.10;;;;;;;22.96;56.36;101075.16;20642705;28;20052;-73
2022/10/12 01:25:57;;;;;;;8.45;6.30;;;;;;;22.94;56.34;101079.72;20640944;28;20509;-72
2022/10/12 01:36:22;;;;;;;8.57;7.00;;;;;;;22.95;56.05;101094.59;20645074;28;20165;-72
2022/10/12 01:46:23;;;;;;;7.85;6.75;;;;;;;22.92;55.99;101092.19;20653705;28;20117;-73
2022/10/12 01:56:36;;;;;;;9.38;7.03;;;;;;;22.91;56.28;101099.28;20645057;28;20474;-72
2022/10/12 02:06:45;;;;;;;8.57;6.68;;;;;;;22.89;55.95;101095.91;20648256;28;20112;-72
2022/10/12 02:16:49;;;;;;;7.63;6.50;;;;;;;22.90;55.82;101099.38;20641965;28;20459;-72
2022/10/12 02:26:52;;;;;;;7.40;6.25;;;;;;;22.88;55.99;101106.59;20635457;28;20050;-72
2022/10/12 02:37:01;;;;;;;8.07;6.20;;;;;;;22.86;56.13;101089.06;20643038;28;20050;-73
2022/10/12 02:47:05;;;;;;;7.25;6.22;;;;;;;22.85;56.13;101087.34;20635213;28;20125;-73
2022/10/12 02:57:06;;;;;;;9.27;6.20;;;;;;;22.83;55.92;101097.19;20632228;28;20049;-74
2022/10/12 03:07:07;;;;;;;6.65;5.82;;;;;;;22.84;56.13;101105.97;20638585;28;20146;-73
2022/10/12 03:17:07;;;;;;;7.38;6.10;;;;;;;22.82;56.07;101105.22;20641475;28;20038;-74
2022/10/12 03:27:08;;;;;;;6.20;5.60;;;;;;;22.81;55.84;101107.03;20636556;28;20034;-74
2022/10/12 03:37:08;;;;;;;6.88;5.97;;;;;;;22.81;56.18;101104.41;20652486;28;20481;-74
2022/10/12 03:47:09;;;;;;;6.15;5.50;;;;;;;22.78;56.32;101101.97;20658535;28;20125;-74
2022/10/12 03:57:09;;;;;;;7.00;5.63;;;;;;;22.78;56.62;101106.41;20652675;28;20046;-74
2022/10/12 04:07:09;;;;;;;6.28;5.68;;;;;;;22.75;56.73;101098.69;20653144;28;20085;-73
2022/10/12 04:17:11;;;;;;;7.60;5.78;;;;;;;22.75;56.71;101101.34;20645022;28;21990;-73
2022/10/12 04:27:11;;;;;;;8.85;5.50;;;;;;;22.82;57.95;101100.78;20659034;28;20635;-74
2022/10/12 04:37:11;;;;;;;6.22;5.63;;;;;;;22.85;58.50;101099.69;20676838;28;20046;-73
2022/10/12 04:47:12;;;;;;;9.90;5.75;;;;;;;22.87;58.44;101097.78;20673180;28;20034;-72
2022/10/12 04:57:12;;;;;;;5.90;5.30;;;;;;;22.89;58.28;101103.81;20662830;28;20111;-72
2022/10/12 05:07:13;;;;;;;7.13;5.55;;;;;;;22.88;57.97;101115.34;20679010;28;20046;-68
2022/10/12 05:17:13;;;;;;;11.05;6.50;;;;;;;22.85;57.38;101120.81;20671552;28;20080;-73
2022/10/12 05:27:14;;;;;;;9.35;6.30;;;;;;;22.78;56.52;101122.25;20660818;28;20050;-75
2022/10/12 05:37:15;;;;;;;12.65;6.45;;;;;;;22.80;57.09;101125.59;20667257;28;20468;-73
2022/10/12 05:47:15;;;;;;;11.43;6.80;;;;;;;22.81;56.66;101133.44;20655546;28;20038;-76
2022/10/12 05:57:16;;;;;;;10.35;7.47;;;;;;;22.75;55.09;101138.31;20674734;28;20353;-76
2022/10/12 06:07:16;;;;;;;12.05;7.28;;;;;;;22.78;56.76;101146.03;20670673;28;20090;-73
2022/10/12 06:17:17;;;;;;;12.20;6.80;;;;;;;22.79;56.65;101155.59;20688662;28;20053;-73
2022/10/12 06:27:18;;;;;;;10.10;6.32;;;;;;;22.79;56.97;101159.09;20664913;28;20042;-73
2022/10/12 06:37:19;;;;;;;9.23;6.57;;;;;;;22.81;57.38;101167.75;20658155;28;20579;-73
2022/10/12 06:47:20;;;;;;;13.88;10.38;;;;;;;22.85;57.82;101171.00;20668956;28;20049;-73
2022/10/12 06:57:21;;;;;;;14.75;9.80;;;;;;;22.86;57.91;101177.97;20659814;28;20145;-73
2022/10/12 07:07:21;;;;;;;15.88;9.48;;;;;;;22.89;57.75;101183.03;20653413;28;20401;-72
2022/10/12 07:17:21;;;;;;;14.05;8.73;;;;;;;22.89;57.61;101182.19;20669102;28;20163;-74
2022/10/12 07:27:22;;;;;;;16.85;9.55;;;;;;;22.91;57.82;101185.56;20671354;28;20053;-72
2022/10/12 07:37:24;;;;;;;12.98;8.98;;;;;;;22.80;56.50;101181.06;20673594;28;20350;-72
2022/10/12 07:47:24;;;;;;;12.37;8.50;;;;;;;22.79;56.84;101174.94;20682510;28;20081;-73
2022/10/12 07:57:24;;;;;;;11.73;7.93;;;;;;;22.79;56.96;101172.31;20686514;28;20070;-74
2022/10/12 08:07:25;;;;;;;10.43;7.90;;;;;;;22.83;57.01;101175.56;20687654;28;20041;-73
2022/10/12 08:17:25;;;;;;;10.18;7.75;;;;;;;22.84;56.72;101180.72;20680331;28;20057;-72
2022/10/12 08:27:29;;;;;;;10.68;7.15;;;;;;;22.85;56.63;101187.69;20678569;28;20042;-72
2022/10/12 08:37:29;;;;;;;10.38;7.40;;;;;;;22.85;56.69;101171.00;20668518;28;20149;-72
2022/10/12 08:47:46;;;;;;;10.18;7.75;;;;;;;22.89;56.88;101176.91;20664339;28;20429;-73
2022/10/12 08:57:46;;;;;;;11.52;7.30;;;;;;;22.85;56.36;101176.28;20667664;28;20088;-72
2022/10/12 09:07:52;;;;;;;18.65;6.80;;;;;;;22.88;56.74;101178.72;20670332;28;20416;-72
2022/10/12 09:17:54;;;;;;;12.32;7.45;;;;;;;22.88;56.88;101183.16;20662972;28;20041;-72
2022/10/12 09:28:24;;;;;;;9.93;6.97;;;;;;;22.85;56.91;101185.06;20661322;28;20046;-72
2022/10/12 09:38:27;;;;;;;9.75;7.40;;;;;;;22.88;56.71;101191.09;20670190;28;20058;-72
2022/10/12 09:48:27;;;;;;;9.93;7.15;;;;;;;22.89;57.26;101185.69;20663582;28;20050;-73
2022/10/12 09:58:29;;;;;;;11.07;6.55;;;;;;;22.92;56.81;101185.44;20665004;28;20053;-73
2022/10/12 10:08:39;;;;;;;10.93;6.57;;;;;;;22.92;56.90;101177.53;20667597;28;20069;-72
2022/10/12 10:18:49;;;;;;;8.02;6.60;;;;;;;22.95;56.86;101171.16;20668266;28;20137;-72
2022/10/12 10:28:55;;;;;;;10.68;6.43;;;;;;;22.93;56.73;101173.09;20659815;28;20046;-72
2022/10/12 10:39:01;;;;;;;7.18;6.07;;;;;;;22.94;56.62;101178.28;20677645;28;20104;-72
2022/10/12 10:49:06;;;;;;;7.88;6.53;;;;;;;22.94;56.79;101182.72;20677665;28;20046;-72
2022/10/12 10:59:17;;;;;;;7.88;6.22;;;;;;;22.93;56.67;101167.81;20678252;28;20358;-72
2022/10/12 11:09:28;;;;;;;21.00;7.00;;;;;;;22.95;56.26;101157.97;20673312;28;20053;-76
2022/10/12 11:19:57;;;;;;;14.50;6.55;;;;;;;22.97;55.35;101156.06;20692086;28;20102;-76
2022/10/12 11:30:01;;;;;;;7.68;6.20;;;;;;;22.94;54.21;101145.75;20677544;28;20405;-76
2022/10/12 11:40:06;;;;;;;9.30;6.35;;;;;;;22.98;53.62;101147.19;20688029;28;20042;-77
2022/10/12 11:50:34;;;;;;;9.48;5.72;;;;;;;22.99;53.18;101144.44;20677164;28;20037;-73
2022/10/12 12:01:01;;;;;;;9.18;6.00;;;;;;;22.99;52.18;101136.50;20675696;28;20046;-73
2022/10/12 12:11:18;;;;;;;11.27;6.32;;;;;;;22.97;51.66;101129.66;20678975;28;20049;-75
2022/10/12 12:21:19;;;;;;;8.93;6.10;;;;;;;22.98;51.05;101123.41;20689617;28;20045;-76
2022/10/12 12:31:22;;;;;;;8.55;5.82;;;;;;;22.98;50.74;101118.97;20697186;28;20129;-76
2022/10/12 12:41:47;;;;;;;7.15;5.78;;;;;;;22.96;50.71;101118.25;20675934;28;20042;-76
2022/10/12 12:51:51;;;;;;;9.90;6.00;;;;;;;22.94;50.08;101111.41;20669705;28;20039;-75
2022/10/12 13:02:35;;;;;;;11.60;6.07;;;;;;;22.92;50.03;101105.38;20666511;28;20061;-75
2022/10/12 13:13:02;;;;;;;11.23;5.90;;;;;;;22.92;50.13;101102.75;20725387;28;20042;-76
2022/10/12 13:23:07;;;;;;;9.77;5.97;;;;;;;22.91;49.45;101098.41;20699797;28;20046;-75
2022/10/12 13:33:08;;;;;;;9.60;6.43;;;;;;;22.90;49.25;101097.59;20686390;28;20080;-75
2022/10/12 13:43:24;;;;;;;8.93;6.10;;;;;;;22.89;49.34;101102.97;20676232;28;20133;-76
2022/10/12 13:53:32;;;;;;;11.75;6.22;;;;;;;22.86;48.47;101094.34;20686185;28;20057;-76
2022/10/12 14:03:38;;;;;;;10.63;6.07;;;;;;;22.83;48.31;101077.88;20677516;28;20504;-76
2022/10/12 14:13:39;;;;;;;8.80;6.45;;;;;;;22.82;48.40;101084.94;20667059;28;20042;-75
2022/10/12 14:23:52;;;;;;;11.65;5.78;;;;;;;22.81;48.37;101078.00;20675303;28;20101;-74
2022/10/12 14:33:52;;;;;;;10.13;6.00;;;;;;;22.84;48.97;101069.00;20675259;28;20038;-76
2022/10/12 14:44:05;;;;;;;9.75;6.13;;;;;;;22.84;48.76;101066.34;20667450;28;20044;-75
2022/10/12 14:54:05;;;;;;;15.82;6.25;;;;;;;22.79;48.81;101071.09;20674225;28;20053;-77
2022/10/12 15:04:05;;;;;;;8.98;5.80;;;;;;;22.81;48.77;101070.06;20677608;28;20050;-76
2022/10/12 15:14:08;;;;;;;10.93;5.97;;;;;;;22.77;48.86;101065.94;20677853;28;20038;-76
2022/10/12 15:24:14;;;;;;;7.95;5.60;;;;;;;22.74;48.96;101065.34;20685570;28;20030;-77
2022/10/12 15:34:17;;;;;;;8.18;5.88;;;;;;;22.73;48.87;101059.22;20702649;28;20050;-76
2022/10/12 15:44:17;;;;;;;10.35;5.93;;;;;;;22.71;49.47;101061.94;20692220;28;20049;-76
2022/10/12 15:54:18;;;;;;;15.63;6.75;;;;;;;22.71;50.12;101056.66;20677712;28;20049;-77
2022/10/12 16:04:29;;;;;;;16.23;6.72;;;;;;;22.70;50.09;101062.94;20676086;28;20050;-77
2022/10/12 16:14:29;;;;;;;17.27;6.72;;;;;;;22.68;50.37;101071.94;20677710;28;20062;-73
2022/10/12 16:24:30;;;;;;;18.02;7.50;;;;;;;22.71;50.85;101075.16;20717689;28;20038;-72
2022/10/12 16:34:30;;;;;;;14.88;7.32;;;;;;;22.74;51.92;101082.03;20722066;28;20038;-72
2022/10/12 16:44:32;;;;;;;16.40;7.40;;;;;;;22.77;52.68;101083.59;20669777;28;20072;-72
2022/10/12 16:54:32;;;;;;;16.47;7.83;;;;;;;22.79;53.00;101076.38;20654448;28;20039;-73
2022/10/12 17:04:33;;;;;;;14.40;8.02;;;;;;;22.80;53.83;101086.00;20654656;28;20041;-74
2022/10/12 17:14:33;;;;;;;13.77;8.43;;;;;;;22.85;54.72;101091.78;20657280;28;20591;-77
2022/10/12 17:24:36;;;;;;;13.38;10.10;;;;;;;22.89;55.41;101084.47;20669701;28;20030;-79
2022/10/12 17:34:39;;;;;;;18.55;9.90;;;;;;;22.92;56.48;101092.19;20652921;28;20046;-81
2022/10/12 17:44:39;;;;;;;15.63;10.23;;;;;;;22.94;57.03;101108.78;20664151;28;20040;-78
2022/10/12 17:54:41;;;;;;;15.40;10.48;;;;;;;22.95;57.99;101098.09;20668204;28;20045;-78
2022/10/12 18:04:41;;;;;;;15.88;10.27;;;;;;;22.95;57.87;101094.59;20661804;28;20552;-80
2022/10/12 18:14:41;;;;;;;14.20;10.05;;;;;;;22.97;58.03;101096.19;20666826;28;20125;-77
2022/10/12 18:24:42;;;;;;;17.30;9.70;;;;;;;22.98;57.94;101100.47;20647996;28;20038;-74
2022/10/12 18:34:43;;;;;;;21.55;9.57;;;;;;;22.95;57.31;101095.44;20652022;28;20048;-71
2022/10/12 18:44:44;;;;;;;13.10;9.60;;;;;;;22.97;57.31;101103.25;20663277;28;20043;-71
2022/10/12 18:54:45;;;;;;;23.58;9.43;;;;;;;22.96;56.79;101106.84;20666640;28;20049;-71
2022/10/12 19:04:46;;;;;;;14.95;10.18;;;;;;;22.92;56.88;101108.84;20662982;28;20866;-73
2022/10/12 19:14:47;;;;;;;16.70;9.65;;;;;;;22.89;56.72;101111.75;20669472;28;20050;-71
2022/10/12 19:24:48;;;;;;;18.30;9.90;;;;;;;22.90;56.77;101121.34;20664613;28;20037;-70
2022/10/12 19:34:51;;;;;;;14.70;9.90;;;;;;;22.89;56.91;101114.38;20668696;28;20382;-70
2022/10/12 19:44:51;;;;;;;13.30;9.65;;;;;;;22.90;57.09;101118.72;20670514;28;20453;-70
2022/10/12 19:54:52;;;;;;;15.05;9.77;;;;;;;22.90;57.06;101118.72;20673617;28;20050;-71
2022/10/12 20:04:53;;;;;;;15.50;9.65;;;;;;;22.89;57.30;101116.16;20670931;28;20056;-72
2022/10/12 20:14:54;;;;;;;14.70;9.40;;;;;;;22.86;57.00;101118.09;20673195;28;20465;-72
2022/10/12 20:24:54;;;;;;;13.90;9.70;;;;;;;22.84;57.17;101129.72;20663879;28;20062;-72
2022/10/12 20:34:55;;;;;;;12.60;9.02;;;;;;;22.83;57.27;101131.50;20664383;28;20104;-71
2022/10/12 20:44:56;;;;;;;12.55;9.35;;;;;;;22.82;57.22;101131.63;20666186;28;20483;-71
2022/10/12 20:54:56;;;;;;;13.32;8.63;;;;;;;22.84;57.54;101140.28;20668279;28;20049;-72
2022/10/12 21:04:57;;;;;;;14.35;8.45;;;;;;;22.86;57.78;101141.00;20666913;28;20042;-71
2022/10/12 21:14:57;;;;;;;13.35;8.73;;;;;;;22.85;57.78;101141.94;20664203;28;20054;-71
2022/10/12 21:24:59;;;;;;;11.33;8.70;;;;;;;22.86;57.81;101135.72;20662187;28;20058;-72
2022/10/12 21:34:59;;;;;;;13.27;8.93;;;;;;;22.86;57.76;101127.78;20662608;28;20046;-72
2022/10/12 21:44:59;;;;;;;11.73;8.55;;;;;;;22.84;57.79;101120.00;20659496;28;20091;-72
2022/10/12 21:55:00;;;;;;;12.32;8.70;;;;;;;22.83;57.29;101125.41;20657632;28;20134;-73
2022/10/12 22:05:01;;;;;;;12.23;9.15;;;;;;;22.82;57.21;101129.00;20650837;28;20559;-72
2022/10/12 22:15:01;;;;;;;11.27;8.60;;;;;;;22.80;56.93;101123.81;20660869;28;20105;-72
2022/10/12 22:25:03;;;;;;;11.63;9.25;;;;;;;22.79;56.62;101130.06;20651935;28;20046;-72
2022/10/12 22:35:03;;;;;;;11.77;8.70;;;;;;;22.77;57.38;101123.22;20656146;28;20053;-72
2022/10/12 22:45:04;;;;;;;8.60;7.18;;;;;;;22.80;57.26;101122.97;20652651;28;20041;-72
2022/10/12 22:55:05;;;;;;;9.77;7.63;;;;;;;22.79;57.15;101130.06;20640979;28;20168;-72
2022/10/12 23:05:24;;;;;;;12.70;8.85;;;;;;;22.78;56.73;101122.25;20648085;28;20338;-73
2022/10/12 23:15:24;;;;;;;11.70;8.10;;;;;;;22.77;57.21;101121.41;20648110;28;20129;-72
2022/10/12 23:25:25;;;;;;;10.95;8.30;;;;;;;22.76;56.76;101111.78;20651691;28;20039;-73
2022/10/12 23:35:25;;;;;;;11.15;8.27;;;;;;;22.75;56.70;101114.53;20642073;28;20038;-73
2022/10/12 23:45:26;;;;;;;12.38;8.13;;;;;;;22.72;56.70;101123.53;20652168;28;20042;-73
2022/10/12 23:55:27;;;;;;;10.05;7.75;;;;;;;22.70;56.60;101125.44;20665367;28;20505;-73
